sensor_id;sensor_type;location;lat;lon;timestamp;P1;durP1;ratioP1;P2;durP2;ratioP2
8131;SDS011;4107;49.212;9.198;2022-08-07T00:01:27;1.00;;;1.00;;
8131;SDS011;4107;49.212;9.198;2022-08-07T00:03:53;1.43;;;1.00;;
8131;SDS011;4107;49.212;9.198;2022-08-07T00:06:19;0.87;;;0.87;;
8131;SDS011;4107;49.212;9.198;2022-08-07T00:08:44;1.27;;;1.03;;
8131;SDS011;4107;49.212;9.198;2022-08-07T00:11:11;2.00;;;0.90;;
8131;SDS011;4107;49.212;9.198;2022-08-07T00:13:37;1.07;;;0.90;;
8131;SDS011;4107;49.212;9.198;2022-08-07T00:16:04;2.07;;;0.90;;
8131;SDS011;4107;49.212;9.198;2022-08-07T00:18:30;1.23;;;1.00;;
8131;SDS011;4107;49.212;9.198;2022-08-07T00:21:01;3.47;;;1.10;;
8131;SDS011;4107;49.212;9.198;2022-08-07T00:23:29;1.00;;;0.90;;
8131;SDS011;4107;49.212;9.198;2022-08-07T00:25:56;1.37;;;1.00;;
8131;SDS011;4107;49.212;9.198;2022-08-07T00:28:22;1.00;;;1.00;;
8131;SDS011;4107;49.212;9.198;2022-08-07T00:30:47;2.73;;;0.90;;
8131;SDS011;4107;49.212;9.198;2022-08-07T00:33:13;1.43;;;1.00;;
8131;SDS011;4107;49.212;9.198;2022-08-07T00:35:39;0.93;;;0.93;;
8131;SDS011;4107;49.212;9.198;2022-08-07T00:38:04;1.53;;;1.00;;
8131;SDS011;4107;49.212;9.198;2022-08-07T00:40:30;1.87;;;0.80;;
8131;SDS011;4107;49.212;9.198;2022-08-07T00:42:57;1.57;;;0.90;;
8131;SDS011;4107;49.212;9.198;2022-08-07T00:45:22;1.20;;;0.90;;
8131;SDS011;4107;49.212;9.198;2022-08-07T00:47:48;1.00;;;0.90;;
8131;SDS011;4107;49.212;9.198;2022-08-07T00:50:14;1.70;;;1.07;;
8131;SDS011;4107;49.212;9.198;2022-08-07T00:52:41;1.10;;;1.00;;
8131;SDS011;4107;49.212;9.198;2022-08-07T00:55:07;2.50;;;0.80;;
8131;SDS011;4107;49.212;9.198;2022-08-07T00:57:33;1.00;;;0.90;;
8131;SDS011;4107;49.212;9.198;2022-08-07T00:59:59;1.03;;;0.80;;
8131;SDS011;4107;49.212;9.198;2022-08-07T01:02:25;1.00;;;0.80;;
8131;SDS011;4107;49.212;9.198;2022-08-07T01:04:51;0.70;;;0.70;;
8131;SDS011;4107;49.212;9.198;2022-08-07T01:07:18;0.70;;;0.70;;
8131;SDS011;4107;49.212;9.198;2022-08-07T01:09:46;1.03;;;0.80;;
8131;SDS011;4107;49.212;9.198;2022-08-07T01:12:13;0.80;;;0.70;;
8131;SDS011;4107;49.212;9.198;2022-08-07T01:14:39;2.63;;;0.90;;
8131;SDS011;4107;49.212;9.198;2022-08-07T01:17:05;1.57;;;0.90;;
8131;SDS011;4107;49.212;9.198;2022-08-07T01:19:32;1.17;;;0.90;;
8131;SDS011;4107;49.212;9.198;2022-08-07T01:21:58;2.33;;;1.00;;
8131;SDS011;4107;49.212;9.198;2022-08-07T01:24:25;3.67;;;1.00;;
8131;SDS011;4107;49.212;9.198;2022-08-07T01:26:52;0.90;;;0.90;;
8131;SDS011;4107;49.212;9.198;2022-08-07T01:29:19;0.90;;;0.90;;
8131;SDS011;4107;49.212;9.198;2022-08-07T01:31:47;1.20;;;0.80;;
8131;SDS011;4107;49.212;9.198;2022-08-07T01:34:13;1.20;;;0.80;;
8131;SDS011;4107;49.212;9.198;2022-08-07T01:36:38;0.90;;;0.80;;
8131;SDS011;4107;49.212;9.198;2022-08-07T01:39:04;1.37;;;0.80;;
8131;SDS011;4107;49.212;9.198;2022-08-07T01:41:30;0.90;;;0.90;;
8131;SDS011;4107;49.212;9.198;2022-08-07T01:43:57;2.37;;;0.90;;
8131;SDS011;4107;49.212;9.198;2022-08-07T01:46:22;1.10;;;0.80;;
8131;SDS011;4107;49.212;9.198;2022-08-07T01:48:49;1.50;;;1.00;;
8131;SDS011;4107;49.212;9.198;2022-08-07T01:51:18;1.17;;;0.80;;
8131;SDS011;4107;49.212;9.198;2022-08-07T01:53:47;1.80;;;0.93;;
8131;SDS011;4107;49.212;9.198;2022-08-07T01:59:42;0.80;;;0.80;;
8131;SDS011;4107;49.212;9.198;2022-08-07T02:02:18;2.00;;;0.97;;
8131;SDS011;4107;49.212;9.198;2022-08-07T02:04:52;1.90;;;0.90;;
8131;SDS011;4107;49.212;9.198;2022-08-07T02:07:22;0.87;;;0.87;;
8131;SDS011;4107;49.212;9.198;2022-08-07T02:09:50;1.40;;;0.97;;
8131;SDS011;4107;49.212;9.198;2022-08-07T02:12:19;1.17;;;0.90;;
8131;SDS011;4107;49.212;9.198;2022-08-07T02:14:50;1.80;;;0.90;;
8131;SDS011;4107;49.212;9.198;2022-08-07T02:17:18;2.20;;;0.93;;
8131;SDS011;4107;49.212;9.198;2022-08-07T02:19:45;1.87;;;1.10;;
8131;SDS011;4107;49.212;9.198;2022-08-07T02:22:12;1.13;;;0.80;;
8131;SDS011;4107;49.212;9.198;2022-08-07T02:24:41;1.20;;;0.90;;
8131;SDS011;4107;49.212;9.198;2022-08-07T02:27:08;1.10;;;0.83;;
8131;SDS011;4107;49.212;9.198;2022-08-07T02:29:36;1.27;;;0.80;;
8131;SDS011;4107;49.212;9.198;2022-08-07T02:32:05;0.90;;;0.90;;
8131;SDS011;4107;49.212;9.198;2022-08-07T02:34:34;1.17;;;1.07;;
8131;SDS011;4107;49.212;9.198;2022-08-07T02:37:02;1.50;;;1.10;;
8131;SDS011;4107;49.212;9.198;2022-08-07T02:39:32;1.53;;;0.90;;
8131;SDS011;4107;49.212;9.198;2022-08-07T02:42:01;0.93;;;0.90;;
8131;SDS011;4107;49.212;9.198;2022-08-07T02:44:27;2.40;;;1.00;;
8131;SDS011;4107;49.212;9.198;2022-08-07T02:46:55;1.10;;;1.00;;
8131;SDS011;4107;49.212;9.198;2022-08-07T02:49:22;1.10;;;1.00;;
8131;SDS011;4107;49.212;9.198;2022-08-07T02:51:48;0.90;;;0.80;;
8131;SDS011;4107;49.212;9.198;2022-08-07T02:54:15;1.57;;;0.90;;
8131;SDS011;4107;49.212;9.198;2022-08-07T02:56:42;0.80;;;0.80;;
8131;SDS011;4107;49.212;9.198;2022-08-07T02:59:10;1.00;;;0.90;;
8131;SDS011;4107;49.212;9.198;2022-08-07T03:01:40;0.70;;;0.70;;
8131;SDS011;4107;49.212;9.198;2022-08-07T03:04:08;0.93;;;0.90;;
8131;SDS011;4107;49.212;9.198;2022-08-07T03:06:34;0.90;;;0.80;;
8131;SDS011;4107;49.212;9.198;2022-08-07T03:09:02;0.90;;;0.70;;
8131;SDS011;4107;49.212;9.198;2022-08-07T03:11:30;2.20;;;1.00;;
8131;SDS011;4107;49.212;9.198;2022-08-07T03:13:57;0.97;;;0.90;;
8131;SDS011;4107;49.212;9.198;2022-08-07T03:16:24;3.13;;;1.00;;
8131;SDS011;4107;49.212;9.198;2022-08-07T03:18:50;0.90;;;0.90;;
8131;SDS011;4107;49.212;9.198;2022-08-07T03:21:16;0.90;;;0.90;;
8131;SDS011;4107;49.212;9.198;2022-08-07T03:23:43;3.20;;;1.10;;
8131;SDS011;4107;49.212;9.198;2022-08-07T03:26:10;1.33;;;1.20;;
8131;SDS011;4107;49.212;9.198;2022-08-07T03:28:41;1.73;;;1.47;;
8131;SDS011;4107;49.212;9.198;2022-08-07T03:31:08;1.20;;;1.10;;
8131;SDS011;4107;49.212;9.198;2022-08-07T03:33:49;3.47;;;1.30;;
8131;SDS011;4107;49.212;9.198;2022-08-07T03:36:19;1.57;;;1.30;;
8131;SDS011;4107;49.212;9.198;2022-08-07T03:38:47;1.60;;;1.40;;
8131;SDS011;4107;49.212;9.198;2022-08-07T03:41:16;2.57;;;1.60;;
8131;SDS011;4107;49.212;9.198;2022-08-07T03:43:42;1.87;;;1.40;;
8131;SDS011;4107;49.212;9.198;2022-08-07T03:46:08;2.30;;;1.40;;
8131;SDS011;4107;49.212;9.198;2022-08-07T03:48:35;2.00;;;1.50;;
8131;SDS011;4107;49.212;9.198;2022-08-07T03:51:01;2.00;;;1.53;;
8131;SDS011;4107;49.212;9.198;2022-08-07T03:53:28;1.40;;;1.30;;
8131;SDS011;4107;49.212;9.198;2022-08-07T03:55:54;2.30;;;1.67;;
8131;SDS011;4107;49.212;9.198;2022-08-07T03:58:23;1.77;;;1.43;;
8131;SDS011;4107;49.212;9.198;2022-08-07T04:00:50;1.67;;;1.50;;
8131;SDS011;4107;49.212;9.198;2022-08-07T04:03:17;1.53;;;1.43;;
8131;SDS011;4107;49.212;9.198;2022-08-07T04:05:43;1.57;;;1.47;;
8131;SDS011;4107;49.212;9.198;2022-08-07T04:08:10;3.90;;;1.40;;
8131;SDS011;4107;49.212;9.198;2022-08-07T04:10:38;2.00;;;1.40;;
8131;SDS011;4107;49.212;9.198;2022-08-07T04:13:04;2.07;;;1.40;;
8131;SDS011;4107;49.212;9.198;2022-08-07T04:15:34;1.63;;;1.30;;
8131;SDS011;4107;49.212;9.198;2022-08-07T04:18:00;1.40;;;1.30;;
8131;SDS011;4107;49.212;9.198;2022-08-07T04:20:26;2.20;;;1.40;;
8131;SDS011;4107;49.212;9.198;2022-08-07T04:22:52;1.30;;;1.20;;
8131;SDS011;4107;49.212;9.198;2022-08-07T04:25:20;1.50;;;1.30;;
8131;SDS011;4107;49.212;9.198;2022-08-07T04:27:47;2.60;;;1.40;;
8131;SDS011;4107;49.212;9.198;2022-08-07T04:30:13;2.40;;;1.30;;
8131;SDS011;4107;49.212;9.198;2022-08-07T04:32:39;3.93;;;1.30;;
8131;SDS011;4107;49.212;9.198;2022-08-07T04:35:06;3.13;;;1.10;;
8131;SDS011;4107;49.212;9.198;2022-08-07T04:37:33;1.73;;;1.23;;
8131;SDS011;4107;49.212;9.198;2022-08-07T04:40:00;3.07;;;1.80;;
8131;SDS011;4107;49.212;9.198;2022-08-07T04:42:26;1.87;;;1.20;;
8131;SDS011;4107;49.212;9.198;2022-08-07T04:44:56;1.30;;;1.20;;
8131;SDS011;4107;49.212;9.198;2022-08-07T04:50:37;1.80;;;1.37;;
8131;SDS011;4107;49.212;9.198;2022-08-07T04:53:04;2.30;;;1.30;;
8131;SDS011;4107;49.212;9.198;2022-08-07T04:55:34;1.20;;;1.10;;
8131;SDS011;4107;49.212;9.198;2022-08-07T04:58:16;2.00;;;1.00;;
8131;SDS011;4107;49.212;9.198;2022-08-07T05:00:47;1.63;;;1.20;;
8131;SDS011;4107;49.212;9.198;2022-08-07T05:05:59;1.97;;;1.20;;
8131;SDS011;4107;49.212;9.198;2022-08-07T05:08:47;1.77;;;1.33;;
8131;SDS011;4107;49.212;9.198;2022-08-07T05:11:22;2.23;;;1.30;;
8131;SDS011;4107;49.212;9.198;2022-08-07T05:13:53;2.57;;;1.30;;
8131;SDS011;4107;49.212;9.198;2022-08-07T05:16:24;1.13;;;1.03;;
8131;SDS011;4107;49.212;9.198;2022-08-07T05:18:55;1.00;;;1.00;;
8131;SDS011;4107;49.212;9.198;2022-08-07T05:21:25;1.03;;;1.00;;
8131;SDS011;4107;49.212;9.198;2022-08-07T05:23:58;3.53;;;1.10;;
8131;SDS011;4107;49.212;9.198;2022-08-07T05:26:28;1.17;;;1.00;;
8131;SDS011;4107;49.212;9.198;2022-08-07T05:28:56;2.00;;;1.30;;
8131;SDS011;4107;49.212;9.198;2022-08-07T05:31:26;2.23;;;1.23;;
8131;SDS011;4107;49.212;9.198;2022-08-07T05:33:53;1.03;;;1.00;;
8131;SDS011;4107;49.212;9.198;2022-08-07T05:36:21;1.90;;;1.30;;
8131;SDS011;4107;49.212;9.198;2022-08-07T05:38:48;1.20;;;1.10;;
8131;SDS011;4107;49.212;9.198;2022-08-07T05:41:15;1.03;;;1.00;;
8131;SDS011;4107;49.212;9.198;2022-08-07T05:43:46;1.97;;;1.30;;
8131;SDS011;4107;49.212;9.198;2022-08-07T05:46:14;1.87;;;1.20;;
8131;SDS011;4107;49.212;9.198;2022-08-07T05:48:41;2.63;;;1.20;;
8131;SDS011;4107;49.212;9.198;2022-08-07T05:51:08;1.93;;;1.23;;
8131;SDS011;4107;49.212;9.198;2022-08-07T05:53:34;1.17;;;1.00;;
8131;SDS011;4107;49.212;9.198;2022-08-07T05:56:00;3.33;;;1.00;;
8131;SDS011;4107;49.212;9.198;2022-08-07T05:58:29;1.23;;;1.00;;
8131;SDS011;4107;49.212;9.198;2022-08-07T06:00:55;2.00;;;1.27;;
8131;SDS011;4107;49.212;9.198;2022-08-07T06:03:21;1.53;;;1.03;;
8131;SDS011;4107;49.212;9.198;2022-08-07T06:05:48;3.97;;;1.10;;
8131;SDS011;4107;49.212;9.198;2022-08-07T06:08:14;1.20;;;1.10;;
8131;SDS011;4107;49.212;9.198;2022-08-07T06:10:41;1.37;;;1.10;;
8131;SDS011;4107;49.212;9.198;2022-08-07T06:13:07;1.07;;;0.97;;
8131;SDS011;4107;49.212;9.198;2022-08-07T06:15:34;3.83;;;1.13;;
8131;SDS011;4107;49.212;9.198;2022-08-07T06:18:01;3.13;;;1.13;;
8131;SDS011;4107;49.212;9.198;2022-08-07T06:20:28;4.13;;;1.27;;
8131;SDS011;4107;49.212;9.198;2022-08-07T06:22:55;1.50;;;1.07;;
8131;SDS011;4107;49.212;9.198;2022-08-07T06:25:21;0.90;;;0.90;;
8131;SDS011;4107;49.212;9.198;2022-08-07T06:27:47;1.63;;;1.00;;
8131;SDS011;4107;49.212;9.198;2022-08-07T06:30:13;1.23;;;1.00;;
8131;SDS011;4107;49.212;9.198;2022-08-07T06:32:39;1.70;;;1.00;;
8131;SDS011;4107;49.212;9.198;2022-08-07T06:35:04;1.80;;;1.20;;
8131;SDS011;4107;49.212;9.198;2022-08-07T06:37:30;2.63;;;1.10;;
8131;SDS011;4107;49.212;9.198;2022-08-07T06:39:56;2.03;;;1.20;;
8131;SDS011;4107;49.212;9.198;2022-08-07T06:42:30;0.90;;;0.90;;
8131;SDS011;4107;49.212;9.198;2022-08-07T06:45:01;0.80;;;0.80;;
8131;SDS011;4107;49.212;9.198;2022-08-07T06:47:35;1.10;;;1.00;;
8131;SDS011;4107;49.212;9.198;2022-08-07T06:50:01;2.63;;;1.00;;
8131;SDS011;4107;49.212;9.198;2022-08-07T06:52:29;1.10;;;0.90;;
8131;SDS011;4107;49.212;9.198;2022-08-07T06:54:55;0.87;;;0.80;;
8131;SDS011;4107;49.212;9.198;2022-08-07T06:57:21;2.10;;;1.27;;
8131;SDS011;4107;49.212;9.198;2022-08-07T06:59:48;1.20;;;0.90;;
8131;SDS011;4107;49.212;9.198;2022-08-07T07:02:16;1.67;;;1.10;;
8131;SDS011;4107;49.212;9.198;2022-08-07T07:04:44;4.37;;;1.10;;
8131;SDS011;4107;49.212;9.198;2022-08-07T07:07:10;2.20;;;1.00;;
8131;SDS011;4107;49.212;9.198;2022-08-07T07:09:36;1.53;;;1.00;;
8131;SDS011;4107;49.212;9.198;2022-08-07T07:14:43;2.83;;;1.10;;
8131;SDS011;4107;49.212;9.198;2022-08-07T07:17:13;1.33;;;1.00;;
8131;SDS011;4107;49.212;9.198;2022-08-07T07:19:43;2.13;;;1.00;;
8131;SDS011;4107;49.212;9.198;2022-08-07T07:22:11;1.40;;;1.10;;
8131;SDS011;4107;49.212;9.198;2022-08-07T07:24:37;2.05;;;1.00;;
8131;SDS011;4107;49.212;9.198;2022-08-07T07:27:03;2.33;;;1.17;;
8131;SDS011;4107;49.212;9.198;2022-08-07T07:29:31;1.27;;;1.17;;
8131;SDS011;4107;49.212;9.198;2022-08-07T07:31:59;1.20;;;1.10;;
8131;SDS011;4107;49.212;9.198;2022-08-07T07:34:27;1.48;;;1.00;;
8131;SDS011;4107;49.212;9.198;2022-08-07T07:36:55;1.47;;;0.90;;
8131;SDS011;4107;49.212;9.198;2022-08-07T07:39:22;0.90;;;0.90;;
8131;SDS011;4107;49.212;9.198;2022-08-07T07:41:49;2.65;;;1.10;;
8131;SDS011;4107;49.212;9.198;2022-08-07T07:44:17;1.23;;;1.10;;
8131;SDS011;4107;49.212;9.198;2022-08-07T07:46:44;0.98;;;0.98;;
8131;SDS011;4107;49.212;9.198;2022-08-07T07:49:11;1.20;;;1.10;;
8131;SDS011;4107;49.212;9.198;2022-08-07T07:51:40;1.35;;;1.02;;
8131;SDS011;4107;49.212;9.198;2022-08-07T07:54:06;2.15;;;0.98;;
8131;SDS011;4107;49.212;9.198;2022-08-07T07:56:33;1.33;;;1.00;;
8131;SDS011;4107;49.212;9.198;2022-08-07T07:59:00;1.52;;;1.00;;
8131;SDS011;4107;49.212;9.198;2022-08-07T08:01:27;1.65;;;1.13;;
8131;SDS011;4107;49.212;9.198;2022-08-07T08:03:54;1.63;;;1.10;;
8131;SDS011;4107;49.212;9.198;2022-08-07T08:06:21;1.20;;;1.10;;
8131;SDS011;4107;49.212;9.198;2022-08-07T08:08:48;1.30;;;1.08;;
8131;SDS011;4107;49.212;9.198;2022-08-07T08:11:16;2.45;;;1.00;;
8131;SDS011;4107;49.212;9.198;2022-08-07T08:13:43;1.30;;;1.00;;
8131;SDS011;4107;49.212;9.198;2022-08-07T08:16:16;0.95;;;0.90;;
8131;SDS011;4107;49.212;9.198;2022-08-07T08:18:45;2.58;;;1.02;;
8131;SDS011;4107;49.212;9.198;2022-08-07T08:21:13;1.15;;;0.98;;
8131;SDS011;4107;49.212;9.198;2022-08-07T08:23:59;2.97;;;1.10;;
8131;SDS011;4107;49.212;9.198;2022-08-07T08:26:45;2.13;;;1.13;;
8131;SDS011;4107;49.212;9.198;2022-08-07T08:29:31;1.20;;;1.02;;
8131;SDS011;4107;49.212;9.198;2022-08-07T08:32:04;0.80;;;0.80;;
8131;SDS011;4107;49.212;9.198;2022-08-07T08:34:33;1.75;;;1.02;;
8131;SDS011;4107;49.212;9.198;2022-08-07T08:37:02;0.90;;;0.90;;
8131;SDS011;4107;49.212;9.198;2022-08-07T08:39:30;1.33;;;1.02;;
8131;SDS011;4107;49.212;9.198;2022-08-07T08:42:02;2.08;;;0.80;;
8131;SDS011;4107;49.212;9.198;2022-08-07T08:44:42;0.98;;;0.80;;
8131;SDS011;4107;49.212;9.198;2022-08-07T08:50:20;1.80;;;0.82;;
8131;SDS011;4107;49.212;9.198;2022-08-07T08:53:18;1.55;;;1.02;;
8131;SDS011;4107;49.212;9.198;2022-08-07T08:55:55;2.10;;;0.77;;
8131;SDS011;4107;49.212;9.198;2022-08-07T08:58:47;0.85;;;0.80;;
8131;SDS011;4107;49.212;9.198;2022-08-07T09:01:43;0.90;;;0.90;;
8131;SDS011;4107;49.212;9.198;2022-08-07T09:06:51;0.80;;;0.80;;
8131;SDS011;4107;49.212;9.198;2022-08-07T09:22:42;1.15;;;0.80;;
8131;SDS011;4107;49.212;9.198;2022-08-07T09:28:06;0.80;;;0.80;;
8131;SDS011;4107;49.212;9.198;2022-08-07T09:36:31;1.50;;;0.90;;
8131;SDS011;4107;49.212;9.198;2022-08-07T09:39:15;0.80;;;0.80;;
8131;SDS011;4107;49.212;9.198;2022-08-07T09:42:01;3.95;;;0.90;;
8131;SDS011;4107;49.212;9.198;2022-08-07T09:53:01;1.30;;;0.90;;
8131;SDS011;4107;49.212;9.198;2022-08-07T09:58:28;0.90;;;0.90;;
8131;SDS011;4107;49.212;9.198;2022-08-07T10:09:51;1.40;;;0.82;;
8131;SDS011;4107;49.212;9.198;2022-08-07T10:15:24;1.15;;;0.82;;
8131;SDS011;4107;49.212;9.198;2022-08-07T10:18:23;1.77;;;0.80;;
8131;SDS011;4107;49.212;9.198;2022-08-07T10:29:40;1.05;;;0.70;;
8131;SDS011;4107;49.212;9.198;2022-08-07T10:35:26;0.70;;;0.70;;
8131;SDS011;4107;49.212;9.198;2022-08-07T10:38:10;0.63;;;0.63;;
8131;SDS011;4107;49.212;9.198;2022-08-07T10:46:47;1.88;;;0.90;;
8131;SDS011;4107;49.212;9.198;2022-08-07T10:49:21;1.48;;;0.82;;
8131;SDS011;4107;49.212;9.198;2022-08-07T10:51:56;0.70;;;0.70;;
8131;SDS011;4107;49.212;9.198;2022-08-07T10:54:53;0.80;;;0.80;;
8131;SDS011;4107;49.212;9.198;2022-08-07T11:00:12;1.30;;;0.90;;
8131;SDS011;4107;49.212;9.198;2022-08-07T11:05:24;1.02;;;0.85;;
8131;SDS011;4107;49.212;9.198;2022-08-07T11:10:57;1.33;;;0.80;;
8131;SDS011;4107;49.212;9.198;2022-08-07T11:13:37;1.10;;;0.90;;
8131;SDS011;4107;49.212;9.198;2022-08-07T11:16:19;2.22;;;0.90;;
8131;SDS011;4107;49.212;9.198;2022-08-07T11:18:50;1.00;;;0.90;;
8131;SDS011;4107;49.212;9.198;2022-08-07T11:21:37;1.20;;;0.90;;
8131;SDS011;4107;49.212;9.198;2022-08-07T11:24:21;1.58;;;1.00;;
8131;SDS011;4107;49.212;9.198;2022-08-07T11:26:56;1.05;;;1.02;;
8131;SDS011;4107;49.212;9.198;2022-08-07T11:30:01;0.85;;;0.85;;
8131;SDS011;4107;49.212;9.198;2022-08-07T11:35:28;2.97;;;0.95;;
8131;SDS011;4107;49.212;9.198;2022-08-07T11:38:15;0.93;;;0.88;;
8131;SDS011;4107;49.212;9.198;2022-08-07T11:43:28;1.48;;;0.80;;
8131;SDS011;4107;49.212;9.198;2022-08-07T11:59:51;1.77;;;0.93;;
8131;SDS011;4107;49.212;9.198;2022-08-07T12:05:20;3.63;;;0.90;;
8131;SDS011;4107;49.212;9.198;2022-08-07T12:08:13;1.20;;;0.90;;
8131;SDS011;4107;49.212;9.198;2022-08-07T12:10:53;0.80;;;0.80;;
8131;SDS011;4107;49.212;9.198;2022-08-07T12:15:54;1.00;;;0.90;;
8131;SDS011;4107;49.212;9.198;2022-08-07T12:18:47;1.55;;;0.80;;
8131;SDS011;4107;49.212;9.198;2022-08-07T12:21:34;1.20;;;0.90;;
8131;SDS011;4107;49.212;9.198;2022-08-07T12:26:39;0.90;;;0.90;;
8131;SDS011;4107;49.212;9.198;2022-08-07T12:29:15;1.42;;;0.90;;
8131;SDS011;4107;49.212;9.198;2022-08-07T12:31:57;0.75;;;0.75;;
8131;SDS011;4107;49.212;9.198;2022-08-07T12:34:32;0.90;;;0.80;;
8131;SDS011;4107;49.212;9.198;2022-08-07T12:37:02;1.13;;;0.80;;
8131;SDS011;4107;49.212;9.198;2022-08-07T12:39:29;1.63;;;0.82;;
8131;SDS011;4107;49.212;9.198;2022-08-07T12:41:57;2.47;;;1.00;;
8131;SDS011;4107;49.212;9.198;2022-08-07T12:44:25;0.80;;;0.80;;
8131;SDS011;4107;49.212;9.198;2022-08-07T12:47:09;2.85;;;0.80;;
8131;SDS011;4107;49.212;9.198;2022-08-07T12:49:45;1.20;;;0.73;;
8131;SDS011;4107;49.212;9.198;2022-08-07T12:52:14;1.65;;;0.82;;
8131;SDS011;4107;49.212;9.198;2022-08-07T12:54:48;1.02;;;0.75;;
8131;SDS011;4107;49.212;9.198;2022-08-07T12:57:26;1.42;;;0.98;;
8131;SDS011;4107;49.212;9.198;2022-08-07T12:59:55;0.80;;;0.80;;
8131;SDS011;4107;49.212;9.198;2022-08-07T13:16:01;1.90;;;1.10;;
8131;SDS011;4107;49.212;9.198;2022-08-07T13:18:38;0.93;;;0.90;;
8131;SDS011;4107;49.212;9.198;2022-08-07T13:21:16;1.33;;;0.80;;
8131;SDS011;4107;49.212;9.198;2022-08-07T13:23:51;0.80;;;0.80;;
8131;SDS011;4107;49.212;9.198;2022-08-07T13:26:37;1.23;;;0.90;;
8131;SDS011;4107;49.212;9.198;2022-08-07T13:29:28;0.70;;;0.70;;
8131;SDS011;4107;49.212;9.198;2022-08-07T13:32:16;1.23;;;0.95;;
8131;SDS011;4107;49.212;9.198;2022-08-07T13:35:21;1.05;;;0.90;;
8131;SDS011;4107;49.212;9.198;2022-08-07T13:38:15;0.80;;;0.80;;
8131;SDS011;4107;49.212;9.198;2022-08-07T13:40:47;0.80;;;0.80;;
8131;SDS011;4107;49.212;9.198;2022-08-07T13:43:28;1.38;;;0.80;;
8131;SDS011;4107;49.212;9.198;2022-08-07T13:45:58;1.08;;;0.80;;
8131;SDS011;4107;49.212;9.198;2022-08-07T13:48:27;0.70;;;0.70;;
8131;SDS011;4107;49.212;9.198;2022-08-07T13:50:55;0.80;;;0.80;;
8131;SDS011;4107;49.212;9.198;2022-08-07T13:53:25;1.92;;;0.90;;
8131;SDS011;4107;49.212;9.198;2022-08-07T13:56:02;0.90;;;0.90;;
8131;SDS011;4107;49.212;9.198;2022-08-07T13:58:33;1.85;;;0.90;;
8131;SDS011;4107;49.212;9.198;2022-08-07T14:01:20;0.90;;;0.80;;
8131;SDS011;4107;49.212;9.198;2022-08-07T14:03:48;0.85;;;0.80;;
8131;SDS011;4107;49.212;9.198;2022-08-07T14:06:16;1.17;;;0.90;;
8131;SDS011;4107;49.212;9.198;2022-08-07T14:08:45;0.70;;;0.70;;
8131;SDS011;4107;49.212;9.198;2022-08-07T14:11:15;1.08;;;0.90;;
8131;SDS011;4107;49.212;9.198;2022-08-07T14:13:46;1.17;;;0.93;;
8131;SDS011;4107;49.212;9.198;2022-08-07T14:16:19;0.98;;;0.90;;
8131;SDS011;4107;49.212;9.198;2022-08-07T14:18:50;1.73;;;0.85;;
8131;SDS011;4107;49.212;9.198;2022-08-07T14:24:18;0.75;;;0.75;;
8131;SDS011;4107;49.212;9.198;2022-08-07T14:26:54;0.85;;;0.85;;
8131;SDS011;4107;49.212;9.198;2022-08-07T14:29:23;0.80;;;0.80;;
8131;SDS011;4107;49.212;9.198;2022-08-07T14:31:51;1.50;;;1.40;;
8131;SDS011;4107;49.212;9.198;2022-08-07T14:34:17;0.95;;;0.90;;
8131;SDS011;4107;49.212;9.198;2022-08-07T14:36:45;1.33;;;0.90;;
8131;SDS011;4107;49.212;9.198;2022-08-07T14:39:12;1.20;;;1.10;;
8131;SDS011;4107;49.212;9.198;2022-08-07T14:41:38;1.92;;;1.23;;
8131;SDS011;4107;49.212;9.198;2022-08-07T14:44:06;0.93;;;0.90;;
8131;SDS011;4107;49.212;9.198;2022-08-07T14:46:35;1.15;;;1.05;;
8131;SDS011;4107;49.212;9.198;2022-08-07T14:49:02;0.80;;;0.80;;
8131;SDS011;4107;49.212;9.198;2022-08-07T14:51:29;2.05;;;0.80;;
8131;SDS011;4107;49.212;9.198;2022-08-07T14:53:58;0.88;;;0.88;;
8131;SDS011;4107;49.212;9.198;2022-08-07T14:56:26;1.13;;;1.00;;
8131;SDS011;4107;49.212;9.198;2022-08-07T14:58:54;1.50;;;0.90;;
8131;SDS011;4107;49.212;9.198;2022-08-07T15:01:24;1.17;;;1.00;;
8131;SDS011;4107;49.212;9.198;2022-08-07T15:03:52;1.23;;;1.00;;
8131;SDS011;4107;49.212;9.198;2022-08-07T15:06:24;2.05;;;1.00;;
8131;SDS011;4107;49.212;9.198;2022-08-07T15:08:53;1.25;;;1.00;;
8131;SDS011;4107;49.212;9.198;2022-08-07T15:11:28;1.15;;;0.85;;
8131;SDS011;4107;49.212;9.198;2022-08-07T15:13:58;0.90;;;0.90;;
8131;SDS011;4107;49.212;9.198;2022-08-07T15:16:46;0.80;;;0.80;;
8131;SDS011;4107;49.212;9.198;2022-08-07T15:19:15;1.08;;;0.98;;
8131;SDS011;4107;49.212;9.198;2022-08-07T15:21:44;0.90;;;0.90;;
8131;SDS011;4107;49.212;9.198;2022-08-07T15:24:35;0.90;;;0.90;;
8131;SDS011;4107;49.212;9.198;2022-08-07T15:29:33;2.85;;;0.77;;
8131;SDS011;4107;49.212;9.198;2022-08-07T15:32:23;0.90;;;0.80;;
8131;SDS011;4107;49.212;9.198;2022-08-07T15:34:50;0.75;;;0.75;;
8131;SDS011;4107;49.212;9.198;2022-08-07T15:37:25;1.27;;;1.08;;
8131;SDS011;4107;49.212;9.198;2022-08-07T15:40:03;2.92;;;0.95;;
8131;SDS011;4107;49.212;9.198;2022-08-07T15:45:07;2.17;;;0.90;;
8131;SDS011;4107;49.212;9.198;2022-08-07T15:47:42;1.00;;;1.00;;
8131;SDS011;4107;49.212;9.198;2022-08-07T15:50:25;1.00;;;0.90;;
8131;SDS011;4107;49.212;9.198;2022-08-07T15:52:55;0.85;;;0.85;;
8131;SDS011;4107;49.212;9.198;2022-08-07T15:55:24;1.50;;;1.20;;
8131;SDS011;4107;49.212;9.198;2022-08-07T15:57:51;0.80;;;0.80;;
8131;SDS011;4107;49.212;9.198;2022-08-07T16:00:22;0.93;;;0.93;;
8131;SDS011;4107;49.212;9.198;2022-08-07T16:02:56;0.93;;;0.93;;
8131;SDS011;4107;49.212;9.198;2022-08-07T16:05:22;0.80;;;0.80;;
8131;SDS011;4107;49.212;9.198;2022-08-07T16:07:52;0.85;;;0.85;;
8131;SDS011;4107;49.212;9.198;2022-08-07T16:10:32;1.10;;;1.00;;
8131;SDS011;4107;49.212;9.198;2022-08-07T16:24:32;2.90;;;1.02;;
8131;SDS011;4107;49.212;9.198;2022-08-07T16:27:11;3.50;;;1.05;;
8131;SDS011;4107;49.212;9.198;2022-08-07T16:29:52;1.27;;;0.98;;
8131;SDS011;4107;49.212;9.198;2022-08-07T16:35:23;1.60;;;0.90;;
8131;SDS011;4107;49.212;9.198;2022-08-07T16:38:01;1.08;;;0.93;;
8131;SDS011;4107;49.212;9.198;2022-08-07T16:46:48;0.90;;;0.90;;
8131;SDS011;4107;49.212;9.198;2022-08-07T16:52:34;1.92;;;1.00;;
8131;SDS011;4107;49.212;9.198;2022-08-07T16:55:29;0.98;;;0.98;;
8131;SDS011;4107;49.212;9.198;2022-08-07T16:58:03;1.88;;;1.00;;
8131;SDS011;4107;49.212;9.198;2022-08-07T17:00:39;1.17;;;1.00;;
8131;SDS011;4107;49.212;9.198;2022-08-07T17:03:18;1.30;;;1.20;;
8131;SDS011;4107;49.212;9.198;2022-08-07T17:05:56;1.95;;;1.08;;
8131;SDS011;4107;49.212;9.198;2022-08-07T17:08:44;3.08;;;1.95;;
8131;SDS011;4107;49.212;9.198;2022-08-07T17:11:26;1.48;;;1.38;;
8131;SDS011;4107;49.212;9.198;2022-08-07T17:14:03;1.25;;;1.15;;
8131;SDS011;4107;49.212;9.198;2022-08-07T17:25:31;2.35;;;1.92;;
8131;SDS011;4107;49.212;9.198;2022-08-07T17:34:07;2.03;;;1.27;;
8131;SDS011;4107;49.212;9.198;2022-08-07T17:36:35;5.38;;;1.17;;
8131;SDS011;4107;49.212;9.198;2022-08-07T17:39:12;1.20;;;1.10;;
8131;SDS011;4107;49.212;9.198;2022-08-07T17:42:04;1.98;;;1.00;;
8131;SDS011;4107;49.212;9.198;2022-08-07T17:47:36;1.40;;;1.30;;
8131;SDS011;4107;49.212;9.198;2022-08-07T17:50:21;1.90;;;1.15;;
8131;SDS011;4107;49.212;9.198;2022-08-07T17:55:45;1.35;;;1.10;;
8131;SDS011;4107;49.212;9.198;2022-08-07T17:58:34;0.90;;;0.90;;
8131;SDS011;4107;49.212;9.198;2022-08-07T18:04:31;1.92;;;1.00;;
8131;SDS011;4107;49.212;9.198;2022-08-07T18:09:29;1.20;;;1.10;;
8131;SDS011;4107;49.212;9.198;2022-08-07T18:13:10;1.15;;;1.00;;
8131;SDS011;4107;49.212;9.198;2022-08-07T18:18:27;1.17;;;1.10;;
8131;SDS011;4107;49.212;9.198;2022-08-07T18:21:27;1.33;;;1.10;;
8131;SDS011;4107;49.212;9.198;2022-08-07T18:30:08;1.10;;;1.00;;
8131;SDS011;4107;49.212;9.198;2022-08-07T18:36:02;1.07;;;1.00;;
8131;SDS011;4107;49.212;9.198;2022-08-07T18:46:46;1.07;;;1.07;;
8131;SDS011;4107;49.212;9.198;2022-08-07T19:00:21;1.43;;;1.33;;
8131;SDS011;4107;49.212;9.198;2022-08-07T19:03:21;1.10;;;1.10;;
8131;SDS011;4107;49.212;9.198;2022-08-07T19:06:06;1.20;;;1.10;;
8131;SDS011;4107;49.212;9.198;2022-08-07T19:08:49;1.33;;;0.90;;
8131;SDS011;4107;49.212;9.198;2022-08-07T19:11:29;0.90;;;0.90;;
8131;SDS011;4107;49.212;9.198;2022-08-07T19:14:41;0.87;;;0.87;;
8131;SDS011;4107;49.212;9.198;2022-08-07T19:17:13;1.00;;;1.00;;
8131;SDS011;4107;49.212;9.198;2022-08-07T19:25:15;1.03;;;0.93;;
8131;SDS011;4107;49.212;9.198;2022-08-07T19:27:42;1.10;;;1.00;;
8131;SDS011;4107;49.212;9.198;2022-08-07T19:30:10;1.67;;;1.30;;